createdAt,value
2023-08-05T00:00:56.261Z,4.25
2023-08-05T00:06:59.662Z,4.63
2023-08-05T00:13:04.858Z,4.38
2023-08-05T00:19:08.582Z,4.20
2023-08-05T00:25:12.330Z,4.28
2023-08-05T00:31:17.362Z,4.53
2023-08-05T00:37:21.071Z,5.03
2023-08-05T00:43:24.614Z,5.13
2023-08-05T00:49:31.140Z,5.22
2023-08-05T00:55:34.970Z,5.68
2023-08-05T01:01:38.635Z,5.85
2023-08-05T01:07:44.310Z,5.90
2023-08-05T01:13:48.445Z,5.85
2023-08-05T01:19:52.312Z,5.93
2023-08-05T01:25:57.209Z,5.65
2023-08-05T01:32:00.848Z,5.97
2023-08-05T01:38:04.451Z,5.47
2023-08-05T01:44:09.843Z,6.07
2023-08-05T01:50:13.441Z,5.75
2023-08-05T01:56:16.955Z,5.75
2023-08-05T02:02:21.832Z,5.75
2023-08-05T02:08:25.339Z,5.40
2023-08-05T02:14:28.827Z,5.03
2023-08-05T02:20:33.862Z,5.18
2023-08-05T02:26:37.359Z,4.20
2023-08-05T02:32:41.041Z,4.28
2023-08-05T02:38:45.907Z,4.63
2023-08-05T02:44:49.335Z,4.88
2023-08-05T02:50:53.119Z,4.22
2023-08-05T02:56:57.979Z,4.95
2023-08-05T03:03:01.850Z,4.03
2023-08-05T03:09:05.479Z,3.45
2023-08-05T03:15:10.727Z,3.13
2023-08-05T03:21:14.144Z,3.85
2023-08-05T03:27:17.675Z,3.30
2023-08-05T03:33:22.635Z,2.78
2023-08-05T03:39:26.469Z,3.40
2023-08-05T03:45:29.891Z,2.90
2023-08-05T03:51:35.400Z,3.60
2023-08-05T03:57:38.869Z,3.30
2023-08-05T04:03:43.505Z,2.40
2023-08-05T04:09:48.509Z,2.97
2023-08-05T04:15:54.945Z,3.28
2023-08-05T04:22:00.613Z,3.13
2023-08-05T04:28:05.547Z,2.72
2023-08-05T04:34:09.218Z,2.15
2023-08-05T04:40:13.512Z,1.77
2023-08-05T04:46:18.410Z,2.45
2023-08-05T04:52:22.200Z,2.70
2023-08-05T04:58:25.603Z,2.38
2023-08-05T05:04:30.614Z,1.42
2023-08-05T05:10:34.243Z,1.90
2023-08-05T05:16:38.103Z,2.30
2023-08-05T05:22:42.927Z,3.00
2023-08-05T05:28:46.313Z,2.50
2023-08-05T05:34:49.832Z,2.70
2023-08-05T05:40:56.306Z,1.92
2023-08-05T05:46:59.802Z,2.83
2023-08-05T05:53:03.538Z,1.52
2023-08-05T05:59:08.504Z,3.47
2023-08-05T06:05:11.906Z,1.67
2023-08-05T06:11:15.364Z,3.00
2023-08-05T06:17:20.175Z,1.70
2023-08-05T06:23:24.112Z,1.50
2023-08-05T06:29:27.607Z,2.20
2023-08-05T06:35:32.449Z,1.90
2023-08-05T06:41:35.959Z,2.10
2023-08-05T06:47:39.468Z,2.90
2023-08-05T06:53:45.611Z,2.35
2023-08-05T06:59:49.253Z,2.10
2023-08-05T07:05:56.146Z,1.80
2023-08-05T07:12:01.178Z,1.90
2023-08-05T07:18:06.052Z,2.10
2023-08-05T07:24:09.528Z,2.00
2023-08-05T07:30:14.889Z,1.63
2023-08-05T07:36:18.504Z,1.80
2023-08-05T07:42:25.424Z,1.80
2023-08-05T07:48:33.462Z,1.63
2023-08-05T07:54:37.088Z,1.77
2023-08-05T08:00:40.980Z,1.98
2023-08-05T08:06:46.636Z,1.50
2023-08-05T08:12:50.134Z,1.92
2023-08-05T08:18:53.777Z,1.80
2023-08-05T08:24:58.601Z,2.08
2023-08-05T08:31:02.184Z,2.00
2023-08-05T08:37:05.720Z,2.33
2023-08-05T08:43:11.135Z,1.98
2023-08-05T08:49:17.538Z,2.53
2023-08-05T08:55:21.365Z,2.10
2023-08-05T09:01:27.555Z,2.05
2023-08-05T09:07:31.142Z,2.17
2023-08-05T09:13:34.691Z,3.22
2023-08-05T09:19:43.224Z,3.58
2023-08-05T09:25:49.231Z,2.28
2023-08-05T09:31:59.245Z,2.65
2023-08-05T09:38:04.350Z,2.80
2023-08-05T09:44:09.394Z,2.92
2023-08-05T09:50:15.043Z,2.80
2023-08-05T09:56:22.007Z,2.72
2023-08-05T10:02:26.718Z,3.28
2023-08-05T10:08:30.421Z,3.60
2023-08-05T10:14:35.756Z,2.70
2023-08-05T10:20:41.147Z,2.83
2023-08-05T10:26:45.774Z,3.42
2023-08-05T10:32:54.323Z,2.38
2023-08-05T10:38:58.078Z,2.22
2023-08-05T10:45:01.884Z,2.53
2023-08-05T10:51:09.909Z,2.63
2023-08-05T10:57:47.131Z,2.80
2023-08-05T11:03:52.096Z,2.28
2023-08-05T11:09:57.865Z,2.10
2023-08-05T11:16:05.100Z,1.67
2023-08-05T11:22:08.613Z,2.28
2023-08-05T11:28:13.523Z,2.10
2023-08-05T11:34:22.546Z,1.92
2023-08-05T11:40:26.181Z,2.10
2023-08-05T11:46:41.273Z,1.90
2023-08-05T11:53:07.927Z,2.00
2023-08-05T11:59:16.107Z,1.83
2023-08-05T12:05:21.061Z,1.83
2023-08-05T12:11:24.479Z,1.63
2023-08-05T12:17:27.990Z,1.88
2023-08-05T12:23:32.792Z,2.00
2023-08-05T12:29:36.359Z,1.80
2023-08-05T12:35:39.789Z,1.92
2023-08-05T12:41:44.577Z,2.70
2023-08-05T12:47:47.989Z,2.05
2023-08-05T12:53:51.477Z,1.88
2023-08-05T12:59:56.318Z,2.03
2023-08-05T13:27:19.917Z,2.13
2023-08-05T13:33:24.131Z,2.45
2023-08-05T13:39:36.830Z,2.10
2023-08-05T13:45:50.108Z,2.45
2023-08-05T13:51:53.757Z,3.60
2023-08-05T13:57:57.463Z,2.65
2023-08-05T14:04:02.527Z,2.67
2023-08-05T14:10:06.244Z,2.22
2023-08-05T14:16:09.655Z,2.40
2023-08-05T14:22:14.680Z,2.67
2023-08-05T14:28:18.686Z,2.75
2023-08-05T14:34:22.970Z,2.58
2023-08-05T14:40:27.929Z,2.25
2023-08-05T14:46:31.430Z,2.22
2023-08-05T14:52:34.950Z,2.03
2023-08-05T14:58:39.689Z,2.65
2023-08-05T15:04:43.131Z,5.22
2023-08-05T15:10:46.545Z,3.45
2023-08-05T15:16:51.321Z,2.60
2023-08-05T15:22:56.575Z,2.40
2023-08-05T15:28:59.975Z,2.70
2023-08-05T15:35:05.107Z,2.50
2023-08-05T15:41:08.525Z,2.53
2023-08-05T15:47:12.041Z,2.13
2023-08-05T15:53:16.884Z,2.22
2023-08-05T15:59:20.335Z,2.25
2023-08-05T16:05:24.564Z,2.30
2023-08-05T16:11:32.455Z,3.00
2023-08-05T16:17:36.000Z,2.17
2023-08-05T16:23:39.441Z,2.35
2023-08-05T16:29:44.265Z,2.05
2023-08-05T16:35:47.907Z,2.20
2023-08-05T16:41:53.624Z,2.00
2023-08-05T16:48:00.750Z,2.00
2023-08-05T16:54:04.177Z,2.15
2023-08-05T17:00:08.750Z,2.22
2023-08-05T17:06:14.027Z,2.00
2023-08-05T17:12:17.725Z,1.58
2023-08-05T17:18:21.465Z,2.30
2023-08-05T17:24:26.366Z,1.92
2023-08-05T17:30:29.832Z,1.50
2023-08-05T17:36:33.305Z,1.95
2023-08-05T17:42:38.127Z,1.92
2023-08-05T17:48:41.587Z,2.10
2023-08-05T17:54:45.085Z,2.40
2023-08-05T18:00:50.044Z,1.75
2023-08-05T18:06:53.845Z,1.60
2023-08-05T18:12:57.277Z,1.40
2023-08-05T18:19:02.122Z,1.15
2023-08-05T18:25:05.784Z,1.10
2023-08-05T18:31:09.233Z,0.85
2023-08-05T18:37:14.070Z,0.80
2023-08-05T18:43:17.722Z,0.80
2023-08-05T18:49:21.372Z,0.80
2023-08-05T18:55:26.519Z,0.50
2023-08-05T19:01:30.011Z,0.55
2023-08-05T19:07:33.806Z,0.43
2023-08-05T19:13:38.672Z,0.65
2023-08-05T19:19:42.345Z,0.50
2023-08-05T19:25:45.831Z,0.50
2023-08-05T19:31:51.152Z,0.60
2023-08-05T19:37:54.777Z,0.40
2023-08-05T19:43:58.201Z,0.50
2023-08-05T19:50:03.331Z,0.55
2023-08-05T19:56:06.764Z,0.60
2023-08-05T20:02:10.413Z,0.30
2023-08-05T20:08:15.258Z,0.60
2023-08-05T20:14:18.734Z,0.80
2023-08-05T20:20:22.598Z,0.70
2023-08-05T20:26:27.431Z,0.45
2023-08-05T20:32:31.318Z,0.40
2023-08-05T20:38:34.835Z,0.70
2023-08-05T20:44:39.945Z,0.80
2023-08-05T20:50:43.414Z,0.40
2023-08-05T20:56:46.885Z,0.50
2023-08-05T21:02:51.735Z,0.43
2023-08-05T21:08:55.216Z,0.65
2023-08-05T21:14:58.657Z,1.33
2023-08-05T21:21:03.755Z,0.43
2023-08-05T21:27:07.654Z,0.80
2023-08-05T21:33:11.052Z,0.80
2023-08-05T21:39:15.960Z,0.55
2023-08-05T21:45:20.556Z,0.88
2023-08-05T21:51:25.593Z,0.70
2023-08-05T21:57:30.743Z,0.80
2023-08-05T22:03:34.446Z,1.10
2023-08-05T22:09:38.055Z,0.93
2023-08-05T22:15:44.307Z,1.70
2023-08-05T22:21:47.910Z,0.68
2023-08-05T22:27:51.352Z,1.10
2023-08-05T22:33:56.129Z,1.10
2023-08-05T22:39:59.730Z,1.35
2023-08-05T22:46:03.763Z,1.70
2023-08-05T22:52:09.147Z,0.90
2023-08-05T22:58:14.037Z,1.15
2023-08-05T23:04:18.126Z,0.80
2023-08-05T23:10:23.019Z,1.08
2023-08-05T23:16:26.441Z,0.57
2023-08-05T23:22:30.108Z,0.88
2023-08-05T23:28:35.327Z,0.52
2023-08-05T23:34:38.743Z,0.50
2023-08-05T23:40:42.160Z,0.60
2023-08-05T23:46:47.066Z,0.93
2023-08-05T23:52:50.682Z,0.60
2023-08-05T23:58:54.233Z,0.50
